createdAt,value
2018-08-06T00:01:08.118Z,38.95
2018-08-06T00:03:34.756Z,38.95
2018-08-06T00:06:01.433Z,38.97
2018-08-06T00:08:28.070Z,38.94
2018-08-06T00:10:54.708Z,39.07
2018-08-06T00:13:21.349Z,39.09
2018-08-06T00:15:48.028Z,39.02
2018-08-06T00:18:14.660Z,39.04
2018-08-06T00:20:41.358Z,39.18
2018-08-06T00:23:07.978Z,39.23
2018-08-06T00:25:34.607Z,39.07
2018-08-06T00:28:01.256Z,39.15
2018-08-06T00:30:27.904Z,39.30
2018-08-06T00:32:54.643Z,39.22
2018-08-06T00:35:22.717Z,39.33
2018-08-06T00:37:47.942Z,39.34
2018-08-06T00:40:14.575Z,39.37
2018-08-06T00:42:41.298Z,39.33
2018-08-06T00:45:07.894Z,39.48
2018-08-06T00:47:34.571Z,39.41
2018-08-06T00:50:01.212Z,39.51
2018-08-06T00:52:27.890Z,39.54
2018-08-06T00:54:54.494Z,39.48
2018-08-06T00:57:21.139Z,39.56
2018-08-06T00:59:47.814Z,39.61
2018-08-06T01:02:14.445Z,39.60
2018-08-06T01:04:41.075Z,39.69
2018-08-06T01:07:07.770Z,39.68
2018-08-06T01:09:34.397Z,39.71
2018-08-06T01:12:01.035Z,39.75
2018-08-06T01:14:27.688Z,39.88
2018-08-06T01:16:54.336Z,39.80
2018-08-06T01:19:20.972Z,39.75
2018-08-06T01:21:47.619Z,39.81
2018-08-06T01:24:14.289Z,39.82
2018-08-06T01:26:40.976Z,39.87
2018-08-06T01:29:07.653Z,39.98
2018-08-06T01:31:34.291Z,39.96
2018-08-06T01:34:00.924Z,40.07
2018-08-06T01:36:27.576Z,40.03
2018-08-06T01:38:54.216Z,40.06
2018-08-06T01:41:20.856Z,40.08
2018-08-06T01:43:47.505Z,40.15
2018-08-06T01:46:14.190Z,40.09
2018-08-06T01:48:40.814Z,40.16
2018-08-06T01:51:07.462Z,40.22
2018-08-06T01:53:34.107Z,40.19
2018-08-06T01:56:00.797Z,40.24
2018-08-06T01:58:27.426Z,40.28
2018-08-06T02:00:54.108Z,40.24
2018-08-06T02:03:20.745Z,40.25
2018-08-06T02:05:47.526Z,40.30
2018-08-06T02:08:14.157Z,40.33
2018-08-06T02:10:40.894Z,40.42
2018-08-06T02:13:07.589Z,40.47
2018-08-06T02:15:34.241Z,40.44
2018-08-06T02:18:00.877Z,40.38
2018-08-06T02:20:27.522Z,40.43
2018-08-06T02:22:54.207Z,40.55
2018-08-06T02:25:20.846Z,40.53
2018-08-06T02:27:47.526Z,40.58
2018-08-06T02:30:14.164Z,40.66
2018-08-06T02:32:40.857Z,40.58
2018-08-06T02:35:07.580Z,40.61
2018-08-06T02:37:34.256Z,40.65
2018-08-06T02:40:00.892Z,40.63
2018-08-06T02:42:27.586Z,40.65
2018-08-06T02:44:54.232Z,40.63
2018-08-06T02:47:20.909Z,40.67
2018-08-06T02:49:47.513Z,40.65
2018-08-06T02:52:14.151Z,40.81
2018-08-06T02:54:40.863Z,40.74
2018-08-06T02:57:07.504Z,40.81
2018-08-06T02:59:34.202Z,40.79
2018-08-06T03:02:00.899Z,40.83
2018-08-06T03:04:27.592Z,40.65
2018-08-06T03:06:54.226Z,40.98
2018-08-06T03:09:20.894Z,41.66
2018-08-06T03:11:47.569Z,41.89
2018-08-06T03:14:14.215Z,41.68
2018-08-06T03:16:40.897Z,41.81
2018-08-06T03:19:07.583Z,41.84
2018-08-06T03:21:34.232Z,42.44
2018-08-06T03:24:00.915Z,42.73
2018-08-06T03:26:27.547Z,42.79
2018-08-06T03:28:54.187Z,43.08
2018-08-06T03:31:20.873Z,43.24
2018-08-06T03:33:47.519Z,44.35
2018-08-06T03:36:14.142Z,44.63
2018-08-06T03:38:40.791Z,44.94
2018-08-06T03:41:07.476Z,45.28
2018-08-06T03:43:34.110Z,45.01
2018-08-06T03:46:00.797Z,45.35
2018-08-06T03:48:27.436Z,44.94
2018-08-06T03:50:54.097Z,45.04
2018-08-06T03:53:20.766Z,45.50
2018-08-06T03:55:47.491Z,45.57
2018-08-06T03:58:14.139Z,45.53
2018-08-06T04:00:40.854Z,45.20
2018-08-06T04:03:07.501Z,44.93
2018-08-06T04:05:34.229Z,44.82
2018-08-06T04:08:00.922Z,44.85
2018-08-06T04:10:27.561Z,44.45
2018-08-06T04:12:54.199Z,44.61
2018-08-06T04:15:20.879Z,44.43
2018-08-06T04:17:47.505Z,44.38
2018-08-06T04:20:14.202Z,43.75
2018-08-06T04:22:40.839Z,43.15
2018-08-06T04:25:07.522Z,42.82
2018-08-06T04:27:34.159Z,42.57
2018-08-06T04:30:00.796Z,42.21
2018-08-06T04:32:27.480Z,41.55
2018-08-06T04:34:54.112Z,41.57
2018-08-06T04:37:20.802Z,41.35
2018-08-06T04:39:47.438Z,41.86
2018-08-06T04:42:14.129Z,41.52
2018-08-06T04:44:40.768Z,42.71
2018-08-06T04:47:07.398Z,43.46
2018-08-06T04:49:34.049Z,42.79
2018-08-06T04:52:00.672Z,43.59
2018-08-06T04:54:27.344Z,42.72
2018-08-06T04:56:53.981Z,43.49
2018-08-06T04:59:20.665Z,43.18
2018-08-06T05:01:47.286Z,42.00
2018-08-06T05:04:13.920Z,42.91
2018-08-06T05:06:40.566Z,41.98
2018-08-06T05:09:07.278Z,44.22
2018-08-06T05:11:33.913Z,44.26
2018-08-06T05:14:00.777Z,42.26
2018-08-06T05:16:27.403Z,42.93
2018-08-06T05:18:54.096Z,41.52
2018-08-06T05:21:20.731Z,43.30
2018-08-06T05:23:47.370Z,43.65
2018-08-06T05:26:14.072Z,43.75
2018-08-06T05:28:40.703Z,42.98
2018-08-06T05:31:07.379Z,42.60
2018-08-06T05:33:34.040Z,42.43
2018-08-06T05:36:00.723Z,42.33
2018-08-06T05:38:27.357Z,42.11
2018-08-06T05:40:53.989Z,42.42
2018-08-06T05:43:20.646Z,42.47
2018-08-06T05:45:47.302Z,42.76
2018-08-06T05:48:13.955Z,42.70
2018-08-06T05:50:40.592Z,43.06
2018-08-06T05:53:07.243Z,42.54
2018-08-06T05:55:33.999Z,42.92
2018-08-06T05:58:00.634Z,43.14
2018-08-06T06:00:27.308Z,43.28
2018-08-06T06:02:53.939Z,43.15
2018-08-06T06:05:20.947Z,43.16
2018-08-06T06:07:47.559Z,43.27
2018-08-06T06:10:14.189Z,43.31
2018-08-06T06:12:40.867Z,43.31
2018-08-06T06:15:07.512Z,43.33
2018-08-06T06:17:34.174Z,43.77
2018-08-06T06:20:00.914Z,43.76
2018-08-06T06:22:27.555Z,43.65
2018-08-06T06:24:54.392Z,44.08
2018-08-06T06:27:21.049Z,44.00
2018-08-06T06:29:47.746Z,43.94
2018-08-06T06:32:14.399Z,43.96
2018-08-06T06:34:41.093Z,44.15
2018-08-06T06:37:07.767Z,43.64
2018-08-06T06:39:34.441Z,43.99
2018-08-06T06:42:01.048Z,43.79
2018-08-06T06:44:27.708Z,43.89
2018-08-06T06:46:54.363Z,43.62
2018-08-06T06:49:20.990Z,43.43
2018-08-06T06:51:47.632Z,43.55
2018-08-06T06:54:14.299Z,43.88
2018-08-06T06:56:40.937Z,43.89
2018-08-06T06:59:07.604Z,43.68
2018-08-06T07:01:34.253Z,43.14
2018-08-06T07:04:00.928Z,42.95
2018-08-06T07:06:27.642Z,42.76
2018-08-06T07:08:54.224Z,42.34
2018-08-06T07:11:20.874Z,42.12
2018-08-06T07:13:47.596Z,41.86
2018-08-06T07:16:14.235Z,41.66
2018-08-06T07:18:40.877Z,41.54
2018-08-06T07:21:07.517Z,41.52
2018-08-06T07:23:34.156Z,41.61
2018-08-06T07:26:00.823Z,41.87
2018-08-06T07:28:27.447Z,42.02
2018-08-06T07:30:54.100Z,41.69
2018-08-06T07:33:20.936Z,42.13
2018-08-06T07:35:47.577Z,42.59
2018-08-06T07:38:14.225Z,42.11
2018-08-06T07:40:40.858Z,42.05
2018-08-06T07:43:07.592Z,41.60
2018-08-06T07:45:34.237Z,41.45
2018-08-06T07:48:00.921Z,41.56
2018-08-06T07:50:27.578Z,41.08
2018-08-06T07:52:54.217Z,41.04
2018-08-06T07:55:20.845Z,41.13
2018-08-06T07:57:47.506Z,41.17
2018-08-06T08:00:14.182Z,41.03
2018-08-06T08:02:40.810Z,41.35
2018-08-06T08:05:07.451Z,42.15
2018-08-06T08:07:34.100Z,42.94
2018-08-06T08:10:00.824Z,43.46
2018-08-06T08:12:27.458Z,43.56
2018-08-06T08:14:54.092Z,42.83
2018-08-06T08:17:20.722Z,43.04
2018-08-06T08:19:47.408Z,42.26
2018-08-06T08:22:14.026Z,41.88
2018-08-06T08:24:40.683Z,42.11
2018-08-06T08:27:07.340Z,42.05
2018-08-06T08:29:33.981Z,41.05
2018-08-06T08:32:00.683Z,41.38
2018-08-06T08:34:27.381Z,41.41
2018-08-06T08:36:54.014Z,41.01
2018-08-06T08:39:20.664Z,41.27
2018-08-06T08:41:47.314Z,41.06
2018-08-06T08:44:13.978Z,41.08
2018-08-06T08:46:41.820Z,41.41
2018-08-06T08:49:07.260Z,40.92
2018-08-06T08:51:33.912Z,41.14
2018-08-06T08:54:00.555Z,41.11
2018-08-06T08:56:27.203Z,41.24
2018-08-06T08:58:53.981Z,41.26
2018-08-06T09:01:20.492Z,41.03
2018-08-06T09:03:47.136Z,41.32
2018-08-06T09:06:13.768Z,41.67
2018-08-06T09:08:40.530Z,41.73
2018-08-06T09:11:07.173Z,41.79
2018-08-06T09:13:33.811Z,41.50
2018-08-06T09:16:00.582Z,41.45
2018-08-06T09:18:27.216Z,41.02
2018-08-06T09:20:53.857Z,40.88
2018-08-06T09:23:20.511Z,40.63
2018-08-06T09:25:47.142Z,40.25
2018-08-06T09:28:14.126Z,40.68
2018-08-06T09:30:40.819Z,39.70
2018-08-06T09:33:07.537Z,40.15
2018-08-06T09:35:34.135Z,40.57
2018-08-06T09:38:00.774Z,40.22
2018-08-06T09:40:27.461Z,40.60
2018-08-06T09:45:20.702Z,40.99
2018-08-06T09:47:47.337Z,40.64
2018-08-06T09:50:14.015Z,40.33
2018-08-06T09:52:40.666Z,39.68
2018-08-06T09:55:07.317Z,40.47
2018-08-06T09:57:33.950Z,40.68
2018-08-06T10:00:00.618Z,40.92
2018-08-06T10:02:27.256Z,40.49
2018-08-06T10:04:53.939Z,39.88
2018-08-06T10:07:20.595Z,39.55
2018-08-06T10:09:47.230Z,39.39
2018-08-06T10:12:13.930Z,39.76
2018-08-06T10:14:40.576Z,40.17
2018-08-06T10:17:07.225Z,40.25
2018-08-06T10:19:33.982Z,40.15
2018-08-06T10:22:00.557Z,39.73
2018-08-06T10:24:27.230Z,39.77
2018-08-06T10:26:53.951Z,40.15
2018-08-06T10:29:20.658Z,40.34
2018-08-06T10:31:47.314Z,40.26
2018-08-06T10:34:13.956Z,40.85
2018-08-06T10:36:40.613Z,40.60
2018-08-06T10:39:07.273Z,39.68
2018-08-06T10:41:33.936Z,39.30
2018-08-06T10:44:00.719Z,39.48
2018-08-06T10:46:27.438Z,39.09
2018-08-06T10:48:54.066Z,39.74
2018-08-06T10:51:20.810Z,39.61
2018-08-06T10:53:47.463Z,40.50
2018-08-06T10:56:14.115Z,40.02
2018-08-06T10:58:40.750Z,38.94
2018-08-06T11:01:07.392Z,38.84
2018-08-06T11:03:34.055Z,39.34
2018-08-06T11:06:01.126Z,39.62
2018-08-06T11:08:27.740Z,39.79
2018-08-06T11:10:54.445Z,39.30
2018-08-06T11:13:21.088Z,38.80
2018-08-06T11:15:47.730Z,39.18
2018-08-06T11:18:14.450Z,39.71
2018-08-06T11:20:41.115Z,39.85
2018-08-06T11:23:07.810Z,39.76
2018-08-06T11:25:34.481Z,40.19
2018-08-06T11:28:01.132Z,40.38
2018-08-06T11:30:27.780Z,40.49
2018-08-06T11:32:54.431Z,40.55
2018-08-06T11:35:21.109Z,40.75
2018-08-06T11:37:47.822Z,40.48
2018-08-06T11:40:14.461Z,40.74
2018-08-06T11:42:41.134Z,40.74
2018-08-06T11:45:07.778Z,40.70
2018-08-06T11:47:34.429Z,40.80
2018-08-06T11:50:01.098Z,40.73
2018-08-06T11:52:27.736Z,40.76
2018-08-06T11:54:54.377Z,40.75
2018-08-06T11:57:21.027Z,40.95
2018-08-06T11:59:47.675Z,41.12
2018-08-06T12:02:14.326Z,41.01
2018-08-06T12:04:40.991Z,40.95
2018-08-06T12:07:07.634Z,41.00
2018-08-06T12:09:34.313Z,40.81
2018-08-06T12:12:00.931Z,40.78
2018-08-06T12:14:27.607Z,40.92
2018-08-06T12:16:54.245Z,40.73
2018-08-06T12:19:20.907Z,40.72
2018-08-06T12:21:47.590Z,40.53
2018-08-06T12:24:14.189Z,40.68
2018-08-06T12:26:40.932Z,40.72
2018-08-06T12:29:07.604Z,40.61
2018-08-06T12:31:34.223Z,40.69
2018-08-06T12:34:00.853Z,40.59
2018-08-06T12:36:27.525Z,40.79
2018-08-06T12:38:54.188Z,40.71
2018-08-06T12:41:20.846Z,40.79
2018-08-06T12:43:47.494Z,40.91
2018-08-06T12:46:14.187Z,41.37
2018-08-06T12:48:40.845Z,41.13
2018-08-06T12:51:07.481Z,40.87
2018-08-06T12:53:34.173Z,40.88
2018-08-06T12:56:00.835Z,40.75
2018-08-06T12:58:27.460Z,40.51
2018-08-06T13:00:54.113Z,40.59
2018-08-06T13:03:20.805Z,40.89
2018-08-06T13:05:47.406Z,40.82
2018-08-06T13:08:14.074Z,40.87
2018-08-06T13:10:40.728Z,40.75
2018-08-06T13:13:07.416Z,40.83
2018-08-06T13:15:37.207Z,40.75
2018-08-06T13:18:03.885Z,40.66
2018-08-06T13:20:30.561Z,40.55
2018-08-06T13:22:57.259Z,40.60
2018-08-06T13:25:23.945Z,40.49
2018-08-06T13:27:50.548Z,40.74
2018-08-06T13:30:17.228Z,40.60
2018-08-06T13:32:43.926Z,40.55
2018-08-06T13:35:10.575Z,40.56
2018-08-06T13:37:37.238Z,40.32
2018-08-06T13:40:04.868Z,40.49
2018-08-06T13:42:31.615Z,40.45
2018-08-06T13:44:58.255Z,40.50
2018-08-06T13:47:24.898Z,40.53
2018-08-06T13:49:51.547Z,40.52
2018-08-06T13:52:18.182Z,40.22
2018-08-06T13:54:45.141Z,40.15
2018-08-06T13:57:11.787Z,40.00
2018-08-06T13:59:38.529Z,40.33
2018-08-06T14:02:05.203Z,40.26
2018-08-06T14:04:31.844Z,40.11
2018-08-06T14:06:58.520Z,40.46
2018-08-06T14:09:25.170Z,40.26
2018-08-06T14:11:51.827Z,40.21
2018-08-06T14:14:18.444Z,39.91
2018-08-06T14:16:45.121Z,40.54
2018-08-06T14:19:11.871Z,40.22
2018-08-06T14:21:38.564Z,40.29
2018-08-06T14:24:05.229Z,39.52
2018-08-06T14:26:31.871Z,39.64
2018-08-06T14:28:58.521Z,39.54
2018-08-06T14:31:25.207Z,39.69
2018-08-06T14:33:51.839Z,39.53
2018-08-06T14:36:18.458Z,39.26
2018-08-06T14:38:48.315Z,39.46
2018-08-06T14:41:14.991Z,39.72
2018-08-06T14:43:41.706Z,39.81
2018-08-06T14:46:08.318Z,39.75
2018-08-06T14:48:34.983Z,39.85
2018-08-06T14:51:01.669Z,40.30
2018-08-06T14:53:28.276Z,40.20
2018-08-06T14:55:54.921Z,39.46
2018-08-06T14:58:21.587Z,39.25
2018-08-06T15:00:48.204Z,39.13
2018-08-06T15:03:14.853Z,39.20
2018-08-06T15:05:41.496Z,38.99
2018-08-06T15:08:08.159Z,38.57
2018-08-06T15:10:34.860Z,38.70
2018-08-06T15:13:01.478Z,38.33
2018-08-06T15:15:28.202Z,38.27
2018-08-06T15:17:54.791Z,38.21
2018-08-06T15:20:21.494Z,38.02
2018-08-06T15:22:48.188Z,38.16
2018-08-06T15:25:14.837Z,37.84
2018-08-06T15:27:41.482Z,37.93
2018-08-06T15:30:08.126Z,37.91
2018-08-06T15:32:34.764Z,37.47
2018-08-06T15:35:01.679Z,37.17
2018-08-06T15:37:28.361Z,37.04
2018-08-06T15:39:54.958Z,36.84
2018-08-06T15:42:21.585Z,36.61
2018-08-06T15:44:48.317Z,36.44
2018-08-06T15:47:14.947Z,36.30
2018-08-06T15:49:41.586Z,36.24
2018-08-06T15:52:08.222Z,35.82
2018-08-06T15:54:34.901Z,35.75
2018-08-06T15:57:01.506Z,35.67
2018-08-06T15:59:28.175Z,35.45
2018-08-06T16:01:54.829Z,35.12
2018-08-06T16:04:21.511Z,35.25
2018-08-06T16:06:48.219Z,35.88
2018-08-06T16:09:14.854Z,36.65
2018-08-06T16:11:41.522Z,36.71
2018-08-06T16:14:08.163Z,36.53
2018-08-06T16:16:34.811Z,36.09
2018-08-06T16:19:01.448Z,35.88
2018-08-06T16:21:28.078Z,35.32
2018-08-06T16:23:54.750Z,35.38
2018-08-06T16:26:21.391Z,35.15
2018-08-06T16:28:48.066Z,34.96
2018-08-06T16:31:14.839Z,34.56
2018-08-06T16:33:41.403Z,34.41
2018-08-06T16:36:08.042Z,34.56
2018-08-06T16:38:34.730Z,34.47
2018-08-06T16:41:01.380Z,34.04
2018-08-06T16:43:28.018Z,34.13
2018-08-06T16:45:54.712Z,34.02
2018-08-06T16:48:21.349Z,34.15
2018-08-06T16:50:48.026Z,33.89
2018-08-06T16:53:14.712Z,33.62
2018-08-06T16:55:41.349Z,33.47
2018-08-06T16:58:08.067Z,33.37
2018-08-06T17:00:34.700Z,33.37
2018-08-06T17:03:01.398Z,33.39
2018-08-06T17:05:28.017Z,33.16
2018-08-06T17:07:54.655Z,32.89
2018-08-06T17:10:21.336Z,32.87
2018-08-06T17:12:47.974Z,32.82
2018-08-06T17:15:14.765Z,32.55
2018-08-06T17:17:41.567Z,32.52
2018-08-06T17:20:08.221Z,32.74
2018-08-06T17:22:34.846Z,32.54
2018-08-06T17:25:01.509Z,32.42
2018-08-06T17:27:29.158Z,32.46
2018-08-06T17:29:55.769Z,32.15
2018-08-06T17:32:22.408Z,32.20
2018-08-06T17:34:49.053Z,32.24
2018-08-06T17:37:17.014Z,32.05
2018-08-06T17:39:42.378Z,32.01
2018-08-06T17:42:09.005Z,31.87
2018-08-06T17:44:35.667Z,31.79
2018-08-06T17:47:02.302Z,31.70
2018-08-06T17:49:28.945Z,31.75
2018-08-06T17:51:55.583Z,31.57
2018-08-06T17:54:22.257Z,31.51
2018-08-06T17:56:48.898Z,31.42
2018-08-06T17:59:15.527Z,31.45
2018-08-06T18:01:42.202Z,31.66
2018-08-06T18:04:08.838Z,31.63
2018-08-06T18:06:35.508Z,31.48
2018-08-06T18:09:02.153Z,31.39
2018-08-06T18:11:28.837Z,31.27
2018-08-06T18:13:55.467Z,31.32
2018-08-06T18:16:22.201Z,31.31
2018-08-06T18:18:48.894Z,31.36
2018-08-06T18:21:15.579Z,31.18
2018-08-06T18:23:42.295Z,31.15
2018-08-06T18:26:08.925Z,31.07
2018-08-06T18:28:35.620Z,30.96
2018-08-06T18:31:02.258Z,30.86
2018-08-06T18:33:28.905Z,30.83
2018-08-06T18:35:55.546Z,30.80
2018-08-06T18:38:22.184Z,30.79
2018-08-06T18:40:48.818Z,30.77
2018-08-06T18:43:15.511Z,30.72
2018-08-06T18:45:42.193Z,31.01
2018-08-06T18:48:08.827Z,30.72
2018-08-06T18:50:35.529Z,30.64
2018-08-06T18:53:02.227Z,30.58
2018-08-06T18:55:28.874Z,30.54
2018-08-06T18:57:55.555Z,30.53
2018-08-06T19:00:22.160Z,30.50
2018-08-06T19:02:48.852Z,30.33
2018-08-06T19:05:15.526Z,30.43
2018-08-06T19:07:42.191Z,30.40
2018-08-06T19:10:08.831Z,30.35
2018-08-06T19:12:35.529Z,30.31
2018-08-06T19:15:02.206Z,30.27
2018-08-06T19:17:28.835Z,30.21
2018-08-06T19:19:55.617Z,30.15
2018-08-06T19:22:22.514Z,30.09
2018-08-06T19:24:49.158Z,30.08
2018-08-06T19:27:15.804Z,30.72
2018-08-06T19:29:42.460Z,31.79
2018-08-06T19:32:09.187Z,32.44
2018-08-06T19:34:35.786Z,32.56
2018-08-06T19:37:02.462Z,32.83
2018-08-06T19:39:29.091Z,31.97
2018-08-06T19:41:55.785Z,32.02
2018-08-06T19:44:22.419Z,32.09
2018-08-06T19:46:49.087Z,32.03
2018-08-06T19:49:15.772Z,31.97
2018-08-06T19:51:42.401Z,31.82
2018-08-06T19:54:09.090Z,31.72
2018-08-06T19:56:35.689Z,31.51
2018-08-06T19:59:02.367Z,31.38
2018-08-06T20:01:29.042Z,31.36
2018-08-06T20:03:55.677Z,31.33
2018-08-06T20:06:22.305Z,31.22
2018-08-06T20:08:48.947Z,31.08
2018-08-06T20:11:15.593Z,31.09
2018-08-06T20:13:42.274Z,30.98
2018-08-06T20:16:08.959Z,30.91
2018-08-06T20:18:35.638Z,30.84
2018-08-06T20:21:02.275Z,32.24
2018-08-06T20:23:28.914Z,32.87
2018-08-06T20:25:55.553Z,32.93
2018-08-06T20:28:22.198Z,33.13
2018-08-06T20:30:48.838Z,33.16
2018-08-06T20:33:15.466Z,32.61
2018-08-06T20:35:42.103Z,32.67
2018-08-06T20:38:08.751Z,32.63
2018-08-06T20:40:35.385Z,32.44
2018-08-06T20:43:02.040Z,32.25
2018-08-06T20:45:28.718Z,32.08
2018-08-06T20:47:55.356Z,32.11
2018-08-06T20:50:21.996Z,31.99
2018-08-06T20:52:48.724Z,31.87
2018-08-06T20:55:15.373Z,31.68
2018-08-06T20:57:42.014Z,31.63
2018-08-06T21:00:11.460Z,31.54
2018-08-06T21:02:38.281Z,31.45
2018-08-06T21:05:04.790Z,31.26
2018-08-06T21:07:31.469Z,31.30
2018-08-06T21:09:58.108Z,31.21
2018-08-06T21:12:24.729Z,31.68
2018-08-06T21:14:51.353Z,32.84
2018-08-06T21:17:18.054Z,33.16
2018-08-06T21:19:44.687Z,33.24
2018-08-06T21:22:11.375Z,33.60
2018-08-06T21:24:38.005Z,32.83
2018-08-06T21:27:04.700Z,32.83
2018-08-06T21:29:31.392Z,32.82
2018-08-06T21:31:58.122Z,32.79
2018-08-06T21:34:24.750Z,32.68
2018-08-06T21:36:51.356Z,32.60
2018-08-06T21:39:18.020Z,32.35
2018-08-06T21:41:44.648Z,32.26
2018-08-06T21:44:11.512Z,32.14
2018-08-06T21:46:38.111Z,32.02
2018-08-06T21:49:04.755Z,31.89
2018-08-06T21:51:31.397Z,31.90
2018-08-06T21:53:58.087Z,31.59
2018-08-06T21:56:24.766Z,31.62
2018-08-06T21:58:51.413Z,31.48
2018-08-06T22:01:18.051Z,31.37
2018-08-06T22:03:44.741Z,31.71
2018-08-06T22:06:11.376Z,32.96
2018-08-06T22:08:38.047Z,33.31
2018-08-06T22:11:04.679Z,33.40
2018-08-06T22:13:32.629Z,33.68
2018-08-06T22:15:57.995Z,33.68
2018-08-06T22:18:24.658Z,33.95
2018-08-06T22:20:51.304Z,34.08
2018-08-06T22:23:17.940Z,34.06
2018-08-06T22:25:44.621Z,34.15
2018-08-06T22:28:11.259Z,34.02
2018-08-06T22:30:37.899Z,34.21
2018-08-06T22:33:04.535Z,34.24
2018-08-06T22:35:31.262Z,34.31
2018-08-06T22:37:57.914Z,34.28
2018-08-06T22:40:24.607Z,34.35
2018-08-06T22:42:51.246Z,34.53
2018-08-06T22:45:17.961Z,34.60
2018-08-06T22:47:44.590Z,34.53
2018-08-06T22:50:11.230Z,34.66
2018-08-06T22:52:37.951Z,34.60
2018-08-06T22:55:04.548Z,34.84
2018-08-06T22:57:31.203Z,34.93
2018-08-06T22:59:57.886Z,34.97
2018-08-06T23:02:24.517Z,35.06
2018-08-06T23:04:51.162Z,35.07
2018-08-06T23:07:17.856Z,35.25
2018-08-06T23:09:44.536Z,35.15
2018-08-06T23:12:11.175Z,35.13
2018-08-06T23:14:37.813Z,35.41
2018-08-06T23:17:04.451Z,35.46
2018-08-06T23:19:31.130Z,35.41
2018-08-06T23:21:57.805Z,35.56
2018-08-06T23:24:24.449Z,35.56
2018-08-06T23:26:51.082Z,35.57
2018-08-06T23:29:17.755Z,35.63
2018-08-06T23:31:44.406Z,35.65
2018-08-06T23:34:11.059Z,35.71
2018-08-06T23:36:37.723Z,35.82
2018-08-06T23:39:04.360Z,35.75
2018-08-06T23:41:31.132Z,35.76
2018-08-06T23:43:57.750Z,36.00
2018-08-06T23:46:24.440Z,35.85
2018-08-06T23:48:51.080Z,35.96
2018-08-06T23:51:17.711Z,36.03
2018-08-06T23:53:44.353Z,35.97
2018-08-06T23:56:11.035Z,36.01
2018-08-06T23:58:37.669Z,35.98
